ADDS METAR Data INFO
IDs: Format: Raw Decoded Include TAF

Data at: 1917 UTC 19 Jul 2018

KOBE 191855Z AUTO 15008KT 10SM SCT048 SCT060 32/24 A2998 RMK AO2 LTG DSNT NW
KOBE 191835Z AUTO 16007KT 125V185 10SM SCT031 SCT039 SCT050 32/25 A2998 RMK AO2 LTG DSNT NW
KOBE 191815Z AUTO 17005KT 10SM SCT031 SCT039 31/25 A2999 RMK AO2 LTG DSNT N
KOBE 191755Z AUTO 15006KT 10SM SCT030 31/24 A3000 RMK AO2
KOBE 191735Z AUTO 18010G14KT 10SM SCT030 SCT037 SCT046 31/25 A3000 RMK AO2 LTG DSNT N AND NW
KOBE 191715Z AUTO 19008KT 10SM SCT032 BKN044 BKN055 31/25 A3000 RMK AO2 LTG DSNT NW
KOBE 191655Z AUTO 21007KT 10SM SCT032 SCT040 BKN055 31/24 A3001 RMK AO2
KOBE 191635Z AUTO 17007KT 10SM SCT034 SCT040 SCT047 31/24 A3002 RMK AO2 LTG DSNT NW
KOBE 191615Z AUTO 20010KT 10SM SCT034 SCT041 31/23 A3003 RMK AO2
KOBE 191555Z AUTO 19010KT 10SM SCT034 SCT041 31/23 A3003 RMK AO2
KOBE 191535Z AUTO 22008KT 10SM SCT032 31/23 A3003 RMK AO2
KOBE 191515Z AUTO 21008KT 10SM SCT032 31/23 A3004 RMK AO2
KOBE 191500Z AUTO 21008KT 10SM SCT030 30/23 A3003 RMK AO2
KOBE 191435Z AUTO 22008KT 10SM CLR 30/23 A3003 RMK AO2 LTG DSNT W
KOBE 191415Z AUTO 23007KT 10SM CLR 30/23 A3003 RMK AO2
KOBE 191355Z AUTO 22008KT 10SM CLR 29/23 A3003 RMK AO2
KOBE 191335Z AUTO 21006KT 10SM CLR 28/24 A3003 RMK AO2 LTG DSNT W
KOBE 191315Z AUTO 21008KT 10SM CLR 28/24 A3002 RMK AO2
KOBE 191255Z AUTO 21006KT 10SM CLR 27/24 A3002 RMK AO2
KOBE 191235Z AUTO 21004KT 10SM CLR 26/24 A3001 RMK AO2
KOBE 191215Z AUTO 20004KT 10SM CLR 26/24 A3000 RMK AO2
KOBE 191155Z AUTO 00000KT 10SM CLR 25/24 A3001 RMK AO2
KOBE 191135Z AUTO 00000KT 7SM CLR 24/23 A3000 RMK AO2
KOBE 191115Z AUTO 20003KT 7SM CLR 23/23 A3000 RMK AO2
KOBE 191055Z AUTO 00000KT 7SM CLR 22/22 A3000 RMK AO2
KOBE 191035Z AUTO 00000KT 10SM CLR 23/23 A2999 RMK AO2
KOBE 191020Z AUTO 00000KT 10SM CLR 23/23 A2999 RMK AO2
KOBE 190955Z AUTO 00000KT 10SM CLR 23/23 A2998 RMK AO2
KOBE 190935Z AUTO 00000KT 7SM CLR 23/22 A2998 RMK AO2
KOBE 190920Z AUTO 00000KT 10SM CLR 23/23 A2998 RMK AO2
KOBE 190855Z AUTO 00000KT 7SM CLR 23/23 A2998 RMK AO2
KOBE 190835Z AUTO 00000KT 10SM CLR 23/23 A2998 RMK AO2 LTG DSNT W
KOBE 190815Z AUTO 00000KT 10SM CLR 23/23 A2998 RMK AO2
KOBE 190755Z AUTO 00000KT 10SM CLR 23/23 A2999 RMK AO2
KOBE 190735Z AUTO 00000KT 7SM CLR 23/22 A2999 RMK AO2 LTG DSNT NW
KOBE 190715Z AUTO 00000KT 10SM CLR 23/23 A3000 RMK AO2
KOBE 190655Z AUTO 00000KT 10SM CLR 23/22 A3000 RMK AO2
KOBE 190635Z AUTO 00000KT 10SM CLR 23/23 A3001 RMK AO2
KOBE 190615Z AUTO 00000KT 10SM CLR 23/23 A3001 RMK AO2
KOBE 190555Z AUTO 00000KT 10SM CLR 23/23 A3002 RMK AO2
KOBE 190535Z AUTO 00000KT 10SM CLR 23/23 A3002 RMK AO2
KOBE 190515Z AUTO 00000KT 10SM SCT034 24/23 A3002 RMK AO2
KOBE 190455Z AUTO 00000KT 10SM SCT034 24/23 A3002 RMK AO2
KOBE 190435Z AUTO 00000KT 10SM CLR 24/23 A3002 RMK AO2
KOBE 190415Z AUTO 00000KT 10SM CLR 23/23 A3002 RMK AO2
KOBE 190355Z AUTO 00000KT 10SM CLR 25/23 A3002 RMK AO2
KOBE 190335Z AUTO 00000KT 10SM CLR 24/23 A3002 RMK AO2
KOBE 190315Z AUTO 00000KT 10SM CLR 25/23 A3002 RMK AO2
KOBE 190255Z AUTO 00000KT 10SM CLR 25/23 A3002 RMK AO2
KOBE 190235Z AUTO 00000KT 10SM CLR 25/23 A3001 RMK AO2
KOBE 190215Z AUTO 00000KT 10SM CLR 25/23 A3000 RMK AO2
KOBE 190155Z AUTO 00000KT 10SM CLR 25/23 A3000 RMK AO2
KOBE 190135Z AUTO 00000KT 10SM CLR 25/23 A3000 RMK AO2
KOBE 190115Z AUTO 00000KT 10SM CLR 26/23 A2999 RMK AO2
KOBE 190055Z AUTO 00000KT 10SM CLR 26/23 A2999 RMK AO2
KOBE 190035Z AUTO 00000KT 10SM CLR 26/23 A2999 RMK AO2
KOBE 190015Z AUTO 00000KT CLR 26/23 A2999 RMK AO2 PWINO
KOBE 182355Z AUTO 00000KT 10SM CLR 26/23 A2999 RMK AO2
KOBE 182335Z AUTO 00000KT 10SM CLR 26/22 A2999 RMK AO2
KOBE 182315Z AUTO 00000KT 10SM CLR 26/22 A2999 RMK AO2 LTG DSNT E
KOBE 182255Z AUTO 17006KT 10SM CLR 26/22 A3000 RMK AO2 LTG DSNT E
KOBE 182235Z AUTO 17006KT 10SM SCT019 SCT026 SCT037 26/22 A3000 RMK AO2 LTG DSNT E AND S
KOBE 182215Z AUTO 21009G18KT 10SM TS SCT019 SCT026 SCT037 27/23 A3002 RMK AO2 LTG DSNT SE THRU SW
KOBE 182155Z AUTO 00000KT 10SM TS CLR 28/24 A3001 RMK AO2 LTG DSNT E THRU SW
KOBE 182135Z AUTO 08003KT 10SM VCTS CLR 28/24 A3001 RMK AO2 LTG DSNT SE THRU SW
KOBE 182115Z AUTO 00000KT 10SM SCT050 28/24 A3001 RMK AO2 LTG DSNT SE THRU SW
KOBE 182055Z AUTO 09003KT SCT050 28/25 A3001 RMK AO2 LTG DSNT E AND S PWINO
KOBE 182035Z AUTO 03005KT SCT050 SCT055 SCT070 29/25 A3002 RMK AO2 LTG DSNT SE THRU SW PWINO
KOBE 182015Z AUTO 03006KT VCTS BKN048 BKN055 OVC070 28/24 A3002 RMK AO2 LTG DSNT S
KOBE 181955Z AUTO 08003KT 10SM -TSRA BKN044 OVC065 26/24 A3001 RMK AO2 P0005 LTG DSNT NE THRU S
KOBE 181935Z AUTO 30005KT 10SM -RA SCT036 BKN042 OVC060 27/23 A3002 RMK AO2 LTG DSNT S
KOBE 181920Z AUTO 34010G15KT 10SM BKN036 BKN043 OVC050 28/22 A3001 RMK AO2
KOBE 181855Z AUTO 17007KT 10SM SCT035 BKN043 BKN050 32/24 A3001 RMK AO2 LTG DSNT NW
KOBE 181835Z AUTO 16005KT 10SM SCT037 BKN043 OVC050 32/24 A3002 RMK AO2
KOBE 181815Z AUTO 18007KT 135V195 10SM VCTS BKN040 OVC060 32/23 A3002 RMK AO2 LTG DSNT N
KOBE 181800Z AUTO 17009KT 10SM BKN041 BKN050 31/23 A3002 RMK AO2 LTG DSNT N AND NW
KOBE 181735Z AUTO 19009KT 10SM BKN041 BKN050 31/24 A3003 RMK AO2 LTG DSNT N AND NW
KOBE 181720Z AUTO 18006KT 10SM SCT041 32/23 A3003 RMK AO2 LTG DSNT NW
KOBE 181655Z AUTO 21009G16KT 10SM SCT037 SCT044 32/23 A3004 RMK AO2 LTG DSNT N
KOBE 181635Z AUTO 20010KT 10SM BKN035 BKN043 31/23 A3004 RMK AO2
KOBE 181615Z AUTO 23007KT 10SM BKN033 BKN043 31/23 A3005 RMK AO2
KOBE 181555Z AUTO 23008KT 10SM SCT033 SCT045 31/23 A3006 RMK AO2
KOBE 181535Z AUTO 21010KT 10SM SCT031 31/23 A3006 RMK AO2
KOBE 181515Z AUTO 22009KT 10SM SCT029 31/23 A3006 RMK AO2
KOBE 181455Z AUTO 21008KT 10SM SCT027 30/24 A3006 RMK AO2
KOBE 181440Z AUTO 20008KT 10SM SCT027 30/24 A3006 RMK AO2
KOBE 181415Z AUTO 21008KT 10SM SCT021 29/23 A3007 RMK AO2
KOBE 181355Z AUTO 23009KT 10SM SCT019 29/24 A3007 RMK AO2
KOBE 181335Z AUTO 20007KT 10SM CLR 28/25 A3007 RMK AO2
KOBE 181315Z AUTO 22006KT 10SM CLR 28/25 A3007 RMK AO2
KOBE 181255Z AUTO 22006KT 10SM CLR 27/25 A3006 RMK AO2
KOBE 181235Z AUTO 21004KT 10SM CLR 27/25 A3006 RMK AO2
KOBE 181215Z AUTO 23004KT 10SM CLR 26/25 A3006 RMK AO2
KOBE 181155Z AUTO 00000KT 10SM CLR 26/24 A3006 RMK AO2 LTG DSNT NW
KOBE 181135Z AUTO 00000KT 10SM CLR 25/24 A3005 RMK AO2 LTG DSNT SE
KOBE 181115Z AUTO 00000KT 7SM CLR 24/23 A3005 RMK AO2
KOBE 181055Z AUTO 00000KT 10SM CLR 24/23 A3005 RMK AO2
KOBE 181040Z AUTO 22003KT 10SM CLR 24/23 A3004 RMK AO2
KOBE 181015Z AUTO 00000KT 7SM CLR 24/23 A3004 RMK AO2
KOBE 180955Z AUTO 00000KT 10SM CLR 24/23 A3003 RMK AO2 LTG DSNT SE
KOBE 180935Z AUTO 21004KT 10SM CLR 24/23 A3003 RMK AO2
KOBE 180915Z AUTO 00000KT 7SM CLR 24/23 A3003 RMK AO2
KOBE 180855Z AUTO 00000KT 10SM CLR 24/23 A3004 RMK AO2
KOBE 180835Z AUTO 00000KT 10SM CLR 24/23 A3004 RMK AO2
KOBE 180820Z AUTO 00000KT 10SM CLR 23/23 A3005 RMK AO2
KOBE 180755Z AUTO 00000KT 10SM CLR 23/23 A3005 RMK AO2
KOBE 180735Z AUTO 00000KT 7SM CLR 23/23 A3005 RMK AO2
KOBE 180720Z AUTO 00000KT 7SM CLR 23/23 A3006 RMK AO2